Robertsdale, Alabama
Current Conditions -  °F | °C
As of 2:55 PM on Tuesday 21 Oct 2014 (Local Time) from KCQF Reporting Station
Clear Clear  
Wind Chill: 77°   Ceiling: Unl
Heat Index: 79°   Visibility: 10mi
Dew Point: 55°   Wind: 6mph
Humidity: 47%   Direction: 310°NW
Pressure: 29.97"   Gusts: NA
Location:  30.55°N, 87.71°W
Report Text: KCQF 211955Z AUTO 31005KT 10SM CLR 25/13 A2997 RMK AO2
Loading
Personal Weather Stations






























Interactive Weather Map
Tropical Storm Tracking
New forecast layout! Learn more

10-Day Weather Forecast

Advertisements
Track Severe Weather on mobile